EST,Max TemperatureF,Mean TemperatureF,Min TemperatureF,Max Dew PointF,MeanDew PointF,Min DewpointF,Max Humidity, Mean Humidity, Min Humidity, Max Sea Level PressureIn, Mean Sea Level PressureIn, Min Sea Level PressureIn, Max VisibilityMiles, Mean VisibilityMiles, Min VisibilityMiles, Max Wind SpeedMPH, Mean Wind SpeedMPH, Max Gust SpeedMPH,PrecipitationIn, CloudCover, Events, WindDirDegrees
2014-1-1,21,20,18,18,15,12,84,78,71,30.40,30.31,30.21,10,2,0,18,10,21,0.25,8,Fog-Snow,11
2014-1-2,18,14,10,13,10,5,88,82,76,30.19,30.01,29.88,5,1,0,29,20,38,0.29,8,Fog-Snow,45
2014-1-3,13,10,6,4,0,-6,80,65,50,30.44,30.29,30.07,10,8,1,21,8,28,T,5,Snow,351
2014-1-4,35,24,13,13,6,1,61,47,32,30.26,30.12,30.02,10,10,7,29,19,44,0.00,3,,189
2014-1-5,46,39,32,41,22,14,89,64,38,30.12,29.90,29.31,10,9,2,18,6,24,0.41,8,Rain,153
2014-1-6,48,20,-9,43,6,-19,92,75,57,30.10,29.76,29.23,10,3,0,31,20,44,0.19,8,Fog-Rain-Snow,240
2014-1-7,4,-3,-10,-4,-13,-21,64,58,51,30.39,30.26,30.06,10,9,2,31,19,43,T,5,Snow,219
2014-1-8,20,12,4,14,2,-6,72,61,49,30.50,30.43,30.34,10,9,2,18,10,25,T,7,Snow,207
2014-1-9,31,21,11,25,14,7,84,67,50,30.65,30.51,30.35,10,8,2,12,4,16,0.01,5,Snow,191
2014-1-10,45,38,31,39,33,26,92,85,78,30.35,30.18,29.76,10,7,2,24,12,35,0.14,8,Rain-Snow,176
2014-1-11,53,44,34,48,40,30,93,85,76,29.75,29.45,29.25,10,8,2,32,18,46,0.38,8,Rain-Snow,221
2014-1-12,40,36,32,30,27,26,82,73,64,29.99,29.85,29.61,10,9,6,24,15,35,T,6,Rain,237
2014-1-13,51,45,39,43,34,25,86,64,41,29.88,29.74,29.65,10,9,4,26,17,37,0.22,5,Rain,194
2014-1-14,46,37,28,43,31,21,89,73,56,29.82,29.75,29.66,10,9,4,21,8,26,0.02,6,Rain,244
2014-1-15,40,33,25,30,20,13,88,68,47,30.04,29.94,29.75,10,7,0,23,12,36,0.12,8,Fog-Snow,240
2014-1-16,31,27,23,21,17,10,81,64,47,29.99,29.88,29.76,10,8,2,22,11,28,0.01,7,Snow,187
2014-1-17,39,32,24,30,24,19,85,70,54,29.90,29.80,29.72,10,7,1,21,11,32,0.04,6,Snow,204
2014-1-18,24,18,12,18,9,3,84,71,57,29.99,29.94,29.87,10,7,1,21,10,30,0.03,7,Snow,216
2014-1-19,33,25,16,22,15,9,80,67,54,29.85,29.72,29.59,10,7,2,28,14,39,0.01,8,Snow,204
2014-1-20,35,26,16,29,18,7,85,73,61,30.04,29.78,29.54,10,6,2,22,10,29,0.08,8,Rain-Snow,313
2014-1-21,16,10,4,9,1,-6,73,66,58,30.17,30.08,29.99,10,7,1,22,11,26,T,8,Snow,36
2014-1-22,11,6,1,4,-2,-6,80,68,55,30.15,30.08,30.01,10,8,2,10,4,14,T,6,Snow,291
2014-1-23,15,11,6,7,4,-5,83,69,55,30.46,30.22,30.04,10,4,1,15,6,21,0.04,8,Snow,266
2014-1-24,18,10,1,1,-2,-5,79,63,46,30.45,30.23,29.71,10,8,2,39,17,49,T,4,Snow,208
2014-1-25,25,18,11,21,13,1,88,67,45,29.73,29.43,29.26,10,3,0,31,19,44,0.20,8,Fog-Snow,238
2014-1-26,31,17,3,21,6,-5,76,70,63,29.82,29.64,29.46,10,6,1,30,15,45,0.01,7,Snow,193
2014-1-27,38,21,3,27,7,-7,88,71,53,30.29,29.92,29.33,10,3,0,29,16,40,0.10,7,Fog-Snow,265
2014-1-28,8,2,-4,-6,-9,-13,78,65,51,30.43,30.33,30.26,10,9,1,18,11,28,0.00,2,Snow,224
2014-1-29,18,8,-2,2,-6,-14,65,51,37,30.30,30.22,30.17,10,10,7,23,14,32,0.00,0,,223
2014-1-30,32,22,11,9,0,-3,58,42,25,30.30,30.13,29.84,10,10,10,31,17,43,0.00,2,,190
2014-1-31,35,33,30,26,17,8,85,61,36,30.19,30.08,29.94,10,10,6,18,10,26,T,7,,222